Time;durP1;ratioP1;P1;durP2;ratioP2;P2;SDS_P1;SDS_P2;PMS_P1;PMS_P2;Temp;Humidity;BMP_temperature;BMP_pressure;BME280_temperature;BME280_humidity;BME280_pressure;Samples;Min_cycle;Max_cycle;Signal;HPM_P1;HPM_P2
2022/10/27 00:07:15;;;;;;;21.33;9.85;;;;;;;;;;6216915;23;20105;-91
2022/10/27 00:10:02;;;;;;;17.13;9.77;;;;;;;;;;6194750;23;20341;-89
2022/10/27 00:12:34;;;;;;;15.98;9.32;;;;;;;;;;6243650;23;20127;-90
2022/10/27 00:15:07;;;;;;;24.10;9.98;;;;;;;;;;6190496;23;20020;-90
2022/10/27 00:17:39;;;;;;;23.67;9.38;;;;;;;;;;6189599;23;20066;-90
2022/10/27 00:20:15;;;;;;;16.23;8.90;;;;;;;;;;6190699;23;20075;-89
2022/10/27 00:22:59;;;;;;;21.25;9.23;;;;;;;;;;6189416;23;20055;-90
2022/10/27 00:25:44;;;;;;;24.58;8.13;;;;;;;;;;6215934;23;20024;-90
2022/10/27 00:28:10;;;;;;;17.60;7.85;;;;;;;;;;6214334;23;20412;-90
2022/10/27 00:30:36;;;;;;;21.48;9.15;;;;;;;;;;6167157;23;20016;-89
2022/10/27 00:33:02;;;;;;;19.80;8.98;;;;;;;;;;6248329;23;20057;-89
2022/10/27 00:35:29;;;;;;;17.75;8.27;;;;;;;;;;6176283;23;20027;-90
2022/10/27 00:38:07;;;;;;;20.35;8.73;;;;;;;;;;6200656;23;20058;-89
2022/10/27 00:40:45;;;;;;;27.88;8.45;;;;;;;;;;6224837;23;20043;-90
2022/10/27 00:43:33;;;;;;;17.73;8.77;;;;;;;;;;6245910;23;20055;-90
2022/10/27 00:46:18;;;;;;;13.68;7.78;;;;;;;;;;6220167;23;20020;-89
2022/10/27 00:48:53;;;;;;;20.00;8.05;;;;;;;;;;6219578;23;20016;-90
2022/10/27 00:51:40;;;;;;;20.40;8.10;;;;;;;;;;6188378;23;20046;-89
2022/10/27 00:54:07;;;;;;;18.50;8.35;;;;;;;;;;6212204;23;20107;-89
2022/10/27 00:56:35;;;;;;;19.10;8.23;;;;;;;;;;6161868;23;20441;-90
2022/10/27 00:59:02;;;;;;;15.77;7.50;;;;;;;;;;6212403;23;20027;-90
2022/10/27 01:01:28;;;;;;;16.60;8.13;;;;;;;;;;6210993;23;20031;-90
2022/10/27 01:03:57;;;;;;;18.58;7.80;;;;;;;;;;6187221;23;20011;-90
2022/10/27 01:06:24;;;;;;;13.60;7.70;;;;;;;;;;6160352;23;20031;-90
2022/10/27 01:08:51;;;;;;;18.95;8.15;;;;;;;;;;6240031;23;20016;-91
2022/10/27 01:11:17;;;;;;;14.13;7.93;;;;;;;;;;6235454;23;20028;-90
2022/10/27 01:13:43;;;;;;;19.42;8.48;;;;;;;;;;6164070;23;20058;-90
2022/10/27 01:16:21;;;;;;;22.63;9.20;;;;;;;;;;6209932;23;20463;-93
2022/10/27 01:19:06;;;;;;;16.25;8.68;;;;;;;;;;6213477;23;20465;-91
2022/10/27 01:21:51;;;;;;;17.58;8.38;;;;;;;;;;6209533;23;20456;-90
2022/10/27 01:24:42;;;;;;;29.77;9.43;;;;;;;;;;6211693;23;20127;-91
2022/10/27 01:27:27;;;;;;;21.38;8.32;;;;;;;;;;6209245;23;20024;-91
2022/10/27 01:30:03;;;;;;;20.55;9.82;;;;;;;;;;6208585;23;20034;-89
2022/10/27 01:32:29;;;;;;;23.40;10.65;;;;;;;;;;6184708;23;20019;-90
2022/10/27 01:34:55;;;;;;;18.25;9.98;;;;;;;;;;6183871;23;20051;-90
2022/10/27 01:37:45;;;;;;;21.67;10.93;;;;;;;;;;6210615;23;20024;-90
2022/10/27 01:40:37;;;;;;;24.40;11.27;;;;;;;;;;6183669;23;20024;-91
2022/10/27 01:43:20;;;;;;;26.58;10.57;;;;;;;;;;6088884;23;20062;-89
2022/10/27 01:45:47;;;;;;;19.70;11.75;;;;;;;;;;6089987;23;20420;-86
2022/10/27 01:48:20;;;;;;;28.58;12.57;;;;;;;;;;6154100;23;20016;-88
2022/10/27 01:50:46;;;;;;;28.27;11.55;;;;;;;;;;6210432;23;20393;-88
2022/10/27 01:53:13;;;;;;;28.88;11.93;;;;;;;;;;6158203;23;20086;-86
2022/10/27 01:56:10;;;;;;;22.90;12.20;;;;;;;;;;6185176;23;20031;-88
2022/10/27 01:58:55;;;;;;;25.60;12.18;;;;;;;;;;6185306;23;20016;-86
2022/10/27 02:01:28;;;;;;;24.50;13.00;;;;;;;;;;6237882;23;20028;-86
2022/10/27 02:03:59;;;;;;;28.52;12.57;;;;;;;;;;6187843;23;20043;-87
2022/10/27 02:06:34;;;;;;;19.35;11.48;;;;;;;;;;6207705;23;20465;-88
2022/10/27 02:09:09;;;;;;;28.08;12.40;;;;;;;;;;6208752;23;20070;-89
2022/10/27 02:11:36;;;;;;;30.05;13.43;;;;;;;;;;6208231;23;20027;-87
2022/10/27 02:14:03;;;;;;;26.40;11.68;;;;;;;;;;6210067;23;20062;-87
2022/10/27 02:16:31;;;;;;;38.80;12.70;;;;;;;;;;6236520;23;20074;-88
2022/10/27 02:19:15;;;;;;;24.70;12.32;;;;;;;;;;6208302;23;20047;-88
2022/10/27 02:21:58;;;;;;;27.10;12.35;;;;;;;;;;6185130;23;20095;-88
2022/10/27 02:24:40;;;;;;;22.20;11.88;;;;;;;;;;6206844;23;20396;-88
2022/10/27 02:27:29;;;;;;;24.00;11.55;;;;;;;;;;6209229;23;20027;-87
2022/10/27 02:30:02;;;;;;;24.10;13.27;;;;;;;;;;6208279;23;20047;-88
2022/10/27 02:32:32;;;;;;;28.65;13.32;;;;;;;;;;6208140;23;20024;-88
2022/10/27 02:34:58;;;;;;;21.05;11.77;;;;;;;;;;6207402;23;20024;-88
2022/10/27 02:37:43;;;;;;;25.90;13.55;;;;;;;;;;6208070;23;20024;-91
2022/10/27 02:42:42;;;;;;;30.08;13.27;;;;;;;;;;6259518;22;20509;-87
2022/10/27 02:45:09;;;;;;;29.67;13.32;;;;;;;;;;6237064;22;20027;-88
2022/10/27 02:47:44;;;;;;;28.63;14.35;;;;;;;;;;6216723;22;20019;-88
2022/10/27 02:50:19;;;;;;;25.60;14.35;;;;;;;;;;6213545;22;20058;-90
2022/10/27 02:52:46;;;;;;;26.17;15.25;;;;;;;;;;6213933;22;20102;-91
2022/10/27 02:55:18;;;;;;;26.83;14.50;;;;;;;;;;6267087;22;20348;-90
2022/10/27 02:57:48;;;;;;;24.02;13.55;;;;;;;;;;6216474;22;20117;-91
2022/10/27 03:00:14;;;;;;;29.98;14.40;;;;;;;;;;6266148;22;20035;-90
2022/10/27 03:02:40;;;;;;;23.90;13.73;;;;;;;;;;6221283;22;20023;-90
2022/10/27 03:05:13;;;;;;;24.17;13.20;;;;;;;;;;6283253;22;20020;-88
2022/10/27 03:07:54;;;;;;;25.23;13.93;;;;;;;;;;6236581;22;20028;-88
2022/10/27 03:10:20;;;;;;;26.45;13.57;;;;;;;;;;6251880;22;20053;-89
2022/10/27 03:12:47;;;;;;;25.90;14.32;;;;;;;;;;6220925;22;20027;-88
2022/10/27 03:15:22;;;;;;;28.35;15.63;;;;;;;;;;6273634;22;20448;-90
2022/10/27 03:17:49;;;;;;;31.65;15.27;;;;;;;;;;6270792;22;20016;-90
2022/10/27 03:20:37;;;;;;;26.63;14.60;;;;;;;;;;6220778;22;20016;-91
2022/10/27 03:23:03;;;;;;;27.83;15.00;;;;;;;;;;6216452;22;20026;-88
2022/10/27 03:25:29;;;;;;;31.60;15.65;;;;;;;;;;6194781;22;20104;-89
2022/10/27 03:27:55;;;;;;;31.75;16.42;;;;;;;;;;6219120;22;20027;-89
2022/10/27 03:30:27;;;;;;;25.13;15.85;;;;;;;;;;6219853;22;20023;-90
2022/10/27 03:32:53;;;;;;;36.97;16.35;;;;;;;;;;6217776;22;20024;-87
2022/10/27 03:35:20;;;;;;;25.30;16.10;;;;;;;;;;6245154;22;20081;-89
2022/10/27 03:40:24;;;;;;;29.80;16.13;;;;;;;;;;6243146;22;20024;-88
2022/10/27 03:43:00;;;;;;;30.70;16.20;;;;;;;;;;6185050;23;20020;-90
2022/10/27 03:45:27;;;;;;;27.02;16.80;;;;;;;;;;6240233;22;20539;-89
2022/10/27 03:48:06;;;;;;;27.90;17.08;;;;;;;;;;6209258;22;20012;-89
2022/10/27 03:50:35;;;;;;;28.58;17.85;;;;;;;;;;6184433;23;20070;-89
2022/10/27 03:53:10;;;;;;;37.30;19.67;;;;;;;;;;6236187;22;20117;-92
2022/10/27 03:55:36;;;;;;;33.72;17.77;;;;;;;;;;6209841;23;20020;-88
2022/10/27 03:58:06;;;;;;;27.85;16.63;;;;;;;;;;6239389;22;20016;-88
2022/10/27 04:00:45;;;;;;;28.65;18.05;;;;;;;;;;6210726;22;20024;-90
2022/10/27 04:03:11;;;;;;;34.28;19.13;;;;;;;;;;6213846;23;20453;-88
2022/10/27 04:05:37;;;;;;;34.72;20.00;;;;;;;;;;6187829;22;20020;-88
2022/10/27 04:08:06;;;;;;;31.50;19.15;;;;;;;;;;6240803;22;20764;-90
2022/10/27 04:10:32;;;;;;;35.72;19.35;;;;;;;;;;6187348;22;20035;-89
2022/10/27 04:12:58;;;;;;;30.98;18.48;;;;;;;;;;6214971;23;20073;-88
2022/10/27 04:15:33;;;;;;;30.00;18.05;;;;;;;;;;6185852;22;20024;-89
2022/10/27 04:17:59;;;;;;;33.03;18.80;;;;;;;;;;6163124;23;20027;-89
2022/10/27 04:20:26;;;;;;;34.72;18.73;;;;;;;;;;6161912;22;20012;-89
2022/10/27 04:22:56;;;;;;;33.75;19.83;;;;;;;;;;6213154;23;20016;-91
2022/10/27 04:25:30;;;;;;;36.15;19.67;;;;;;;;;;6188453;23;20020;-92
2022/10/27 04:28:04;;;;;;;32.75;20.10;;;;;;;;;;6190595;23;20027;-89
2022/10/27 04:30:30;;;;;;;45.60;21.23;;;;;;;;;;6190166;22;20035;-86
2022/10/27 04:33:24;;;;;;;39.15;19.73;;;;;;;;;;6165862;23;20008;-89
2022/10/27 04:35:50;;;;;;;35.72;20.52;;;;;;;;;;6187658;22;20096;-89
2022/10/27 04:38:17;;;;;;;30.50;19.13;;;;;;;;;;6185819;22;20016;-88
2022/10/27 04:40:43;;;;;;;37.88;21.85;;;;;;;;;;6213640;22;20043;-90
2022/10/27 04:43:09;;;;;;;42.47;21.30;;;;;;;;;;6242780;22;20011;-88
2022/10/27 04:45:35;;;;;;;39.38;23.95;;;;;;;;;;6241856;22;20023;-89
2022/10/27 04:48:01;;;;;;;39.75;22.90;;;;;;;;;;6237446;22;20420;-88
2022/10/27 04:50:27;;;;;;;36.40;22.30;;;;;;;;;;6239664;22;20016;-87
2022/10/27 04:53:04;;;;;;;48.97;24.70;;;;;;;;;;6236645;22;20776;-88
2022/10/27 04:55:32;;;;;;;48.58;25.85;;;;;;;;;;6240919;22;20102;-90
2022/10/27 04:57:58;;;;;;;40.38;25.67;;;;;;;;;;6220335;22;20094;-87
2022/10/27 05:00:25;;;;;;;41.22;27.10;;;;;;;;;;6226051;22;20020;-89
2022/10/27 05:02:55;;;;;;;47.25;26.58;;;;;;;;;;6276540;22;20049;-89
2022/10/27 05:05:28;;;;;;;45.70;25.80;;;;;;;;;;6288957;22;20061;-88
2022/10/27 05:08:01;;;;;;;48.97;25.33;;;;;;;;;;6245269;22;20080;-90
2022/10/27 05:10:30;;;;;;;39.03;26.27;;;;;;;;;;6243259;22;20030;-89
2022/10/27 05:13:05;;;;;;;50.35;25.33;;;;;;;;;;6272283;22;20247;-90
2022/10/27 05:15:41;;;;;;;44.47;25.38;;;;;;;;;;6246331;22;20020;-90
2022/10/27 05:18:09;;;;;;;44.58;25.75;;;;;;;;;;6245226;22;20447;-94
2022/10/27 05:20:39;;;;;;;43.92;24.80;;;;;;;;;;6246515;22;20035;-93
2022/10/27 05:23:05;;;;;;;45.20;24.77;;;;;;;;;;6249905;22;20027;-91
2022/10/27 05:25:31;;;;;;;41.03;24.30;;;;;;;;;;6277396;22;20023;-90
2022/10/27 05:28:04;;;;;;;42.88;24.70;;;;;;;;;;6243967;22;20545;-91
2022/10/27 05:30:34;;;;;;;38.67;23.88;;;;;;;;;;6241724;22;20043;-92
2022/10/27 05:33:28;;;;;;;40.38;23.88;;;;;;;;;;6282400;22;20108;-90
2022/10/27 05:35:54;;;;;;;34.97;22.98;;;;;;;;;;6251180;22;20169;-90
2022/10/27 05:38:20;;;;;;;40.08;24.10;;;;;;;;;;6220368;23;20016;-90
2022/10/27 05:40:56;;;;;;;42.53;24.13;;;;;;;;;;6212670;23;20039;-92
2022/10/27 05:43:23;;;;;;;36.75;23.73;;;;;;;;;;6212083;23;20024;-88
2022/10/27 05:46:05;;;;;;;39.25;24.98;;;;;;;;;;6212086;23;20074;-90
2022/10/27 05:48:31;;;;;;;45.75;23.63;;;;;;;;;;6238001;23;20023;-90
2022/10/27 05:50:57;;;;;;;45.40;24.73;;;;;;;;;;6214318;23;20024;-90
2022/10/27 05:53:23;;;;;;;44.33;25.30;;;;;;;;;;6210067;23;20020;-91
2022/10/27 05:56:01;;;;;;;43.30;24.13;;;;;;;;;;6238501;23;20455;-89
2022/10/27 05:58:27;;;;;;;40.13;23.73;;;;;;;;;;6239371;23;20020;-91
2022/10/27 06:00:56;;;;;;;40.22;24.05;;;;;;;;;;6187681;23;20070;-87
2022/10/27 06:03:23;;;;;;;49.33;24.05;;;;;;;;;;6240472;23;20035;-91
2022/10/27 06:06:02;;;;;;;43.88;24.95;;;;;;;;;;6188918;23;20020;-87
2022/10/27 06:08:31;;;;;;;44.92;26.05;;;;;;;;;;6240938;23;20024;-88
2022/10/27 06:10:57;;;;;;;48.28;27.15;;;;;;;;;;6213794;23;20020;-87
2022/10/27 06:13:23;;;;;;;51.85;28.65;;;;;;;;;;6189394;23;20499;-89
2022/10/27 06:15:58;;;;;;;41.70;26.52;;;;;;;;;;6189813;23;20324;-92
2022/10/27 06:18:24;;;;;;;52.38;26.75;;;;;;;;;;6190653;23;20425;-91
2022/10/27 06:20:50;;;;;;;51.47;27.27;;;;;;;;;;6238135;23;20012;-88
2022/10/27 06:23:16;;;;;;;48.30;26.52;;;;;;;;;;6242902;23;20098;-92
2022/10/27 06:25:42;;;;;;;51.88;28.15;;;;;;;;;;6213037;23;20020;-92
2022/10/27 06:28:09;;;;;;;49.20;27.33;;;;;;;;;;6243458;23;20020;-91
2022/10/27 06:30:35;;;;;;;45.13;27.17;;;;;;;;;;6236333;23;20016;-91
2022/10/27 06:33:01;;;;;;;56.05;27.90;;;;;;;;;;6185214;23;20042;-91
2022/10/27 06:35:27;;;;;;;49.42;26.83;;;;;;;;;;6216441;23;20026;-91
2022/10/27 06:37:53;;;;;;;42.83;27.00;;;;;;;;;;6192005;23;20022;-91
2022/10/27 06:40:20;;;;;;;40.80;25.33;;;;;;;;;;6195942;23;20071;-90
2022/10/27 06:42:58;;;;;;;39.72;26.38;;;;;;;;;;6190533;23;20023;-88
2022/10/27 06:45:30;;;;;;;45.30;26.90;;;;;;;;;;6213560;23;20087;-87
2022/10/27 06:47:57;;;;;;;41.65;26.30;;;;;;;;;;6188412;23;20016;-92
2022/10/27 06:50:24;;;;;;;41.38;25.20;;;;;;;;;;6241378;23;20058;-91
2022/10/27 06:52:50;;;;;;;43.35;25.75;;;;;;;;;;6240120;23;20034;-86
2022/10/27 06:55:16;;;;;;;44.95;25.63;;;;;;;;;;6240662;23;20092;-93
2022/10/27 06:57:43;;;;;;;44.55;25.45;;;;;;;;;;6241711;23;20016;-94
2022/10/27 07:00:15;;;;;;;40.10;23.67;;;;;;;;;;6193936;23;20091;-90
2022/10/27 07:02:44;;;;;;;39.13;24.45;;;;;;;;;;6189734;23;20028;-91
2022/10/27 07:05:10;;;;;;;41.42;24.05;;;;;;;;;;6214378;23;20072;-88
2022/10/27 07:07:37;;;;;;;41.15;24.55;;;;;;;;;;6239500;23;20054;-94
2022/10/27 07:10:07;;;;;;;37.45;22.92;;;;;;;;;;6215388;23;20024;-90
2022/10/27 07:15:38;;;;;;;37.38;21.92;;;;;;;;;;6214506;23;20026;-93
2022/10/27 07:18:09;;;;;;;36.58;21.63;;;;;;;;;;6192221;23;20094;-93
2022/10/27 07:20:52;;;;;;;34.60;21.10;;;;;;;;;;6177576;23;20033;-92
2022/10/27 07:23:27;;;;;;;39.05;21.55;;;;;;;;;;6179351;23;20032;-91
2022/10/27 07:25:59;;;;;;;32.33;21.63;;;;;;;;;;6177698;23;20025;-90
2022/10/27 07:28:26;;;;;;;40.80;21.50;;;;;;;;;;6154186;23;20024;-92
2022/10/27 07:30:58;;;;;;;33.80;20.27;;;;;;;;;;6177278;23;20021;-92
2022/10/27 07:33:24;;;;;;;32.88;21.08;;;;;;;;;;6178791;23;20021;-92
2022/10/27 07:36:16;;;;;;;33.42;20.90;;;;;;;;;;6174777;23;20071;-93
2022/10/27 07:38:42;;;;;;;30.35;20.15;;;;;;;;;;6183890;23;20029;-93
2022/10/27 07:41:08;;;;;;;26.40;19.13;;;;;;;;;;6156499;23;20052;-92
2022/10/27 07:43:35;;;;;;;26.67;19.35;;;;;;;;;;6185205;23;20012;-89
2022/10/27 07:46:10;;;;;;;32.10;18.38;;;;;;;;;;6206353;23;20131;-87
2022/10/27 07:48:36;;;;;;;33.67;19.45;;;;;;;;;;6181941;23;20088;-87
2022/10/27 07:51:03;;;;;;;30.75;18.65;;;;;;;;;;6190813;23;20061;-88
2022/10/27 07:53:29;;;;;;;28.55;17.77;;;;;;;;;;6239551;22;20024;-89
2022/10/27 07:55:57;;;;;;;29.33;17.98;;;;;;;;;;6243848;22;20077;-86
2022/10/27 07:58:23;;;;;;;26.88;15.73;;;;;;;;;;6245237;22;20098;-87
2022/10/27 08:00:49;;;;;;;24.15;16.40;;;;;;;;;;6249541;22;20079;-86
2022/10/27 08:03:20;;;;;;;21.92;15.52;;;;;;;;;;6258516;22;20016;-87
2022/10/27 08:05:46;;;;;;;24.60;16.08;;;;;;;;;;6289394;22;20077;-85
2022/10/27 08:08:13;;;;;;;29.08;14.95;;;;;;;;;;6205470;22;20479;-92
2022/10/27 08:10:39;;;;;;;24.05;14.65;;;;;;;;;;6276738;22;20043;-87
2022/10/27 08:13:06;;;;;;;27.13;15.82;;;;;;;;;;6274565;22;20543;-88
2022/10/27 08:15:41;;;;;;;27.20;15.55;;;;;;;;;;6275606;22;20023;-94
2022/10/27 08:18:10;;;;;;;28.08;14.63;;;;;;;;;;6274413;22;20027;-92
2022/10/27 08:20:53;;;;;;;20.92;14.00;;;;;;;;;;6224904;22;20016;-89
2022/10/27 08:23:24;;;;;;;22.70;14.13;;;;;;;;;;6274455;22;20022;-90
2022/10/27 08:25:51;;;;;;;18.10;12.60;;;;;;;;;;6274810;22;20393;-89
2022/10/27 08:28:18;;;;;;;22.80;13.35;;;;;;;;;;6304853;22;20027;-89
2022/10/27 08:31:06;;;;;;;19.88;12.38;;;;;;;;;;6273487;22;20532;-89
2022/10/27 08:34:02;;;;;;;20.52;13.00;;;;;;;;;;6303933;22;20471;-91
2022/10/27 08:36:31;;;;;;;17.15;11.98;;;;;;;;;;6273572;22;20050;-90
2022/10/27 08:39:06;;;;;;;20.20;12.63;;;;;;;;;;6271703;22;20034;-89
2022/10/27 08:41:59;;;;;;;23.67;11.55;;;;;;;;;;6266157;22;20070;-93
2022/10/27 08:44:44;;;;;;;18.40;10.47;;;;;;;;;;6239048;22;20460;-87
2022/10/27 08:47:27;;;;;;;18.98;11.65;;;;;;;;;;6241589;22;20023;-90
2022/10/27 08:50:30;;;;;;;17.00;11.68;;;;;;;;;;6267642;22;20015;-93
2022/10/27 08:53:07;;;;;;;18.90;10.38;;;;;;;;;;6264455;22;20027;-95
2022/10/27 08:55:36;;;;;;;21.67;11.02;;;;;;;;;;6266570;22;20024;-94
2022/10/27 08:58:21;;;;;;;18.75;11.13;;;;;;;;;;6264673;22;20020;-92
2022/10/27 09:01:09;;;;;;;16.58;10.60;;;;;;;;;;6244324;22;20105;-94
2022/10/27 09:03:54;;;;;;;18.80;10.73;;;;;;;;;;6213879;22;20019;-93
2022/10/27 09:06:22;;;;;;;19.55;10.80;;;;;;;;;;6186060;23;20024;-91
2022/10/27 09:08:57;;;;;;;22.90;10.88;;;;;;;;;;6213081;22;20024;-92
2022/10/27 09:11:26;;;;;;;16.08;10.55;;;;;;;;;;6247890;22;20019;-90
2022/10/27 09:14:10;;;;;;;17.75;10.27;;;;;;;;;;6247041;22;20054;-93
2022/10/27 09:16:39;;;;;;;16.60;10.13;;;;;;;;;;6250480;22;20084;-87
2022/10/27 09:19:12;;;;;;;17.48;9.90;;;;;;;;;;6291269;22;20021;-87
2022/10/27 09:21:39;;;;;;;14.35;8.93;;;;;;;;;;6261048;22;20027;-89
2022/10/27 09:24:25;;;;;;;15.48;9.95;;;16.00;99.90;;;;;;6262968;22;20020;-90
2022/10/27 09:27:32;;;;;;;16.65;9.10;;;;;;;;;;6277332;22;20051;-90
2022/10/27 09:30:33;;;;;;;15.88;9.48;;;;;;;;;;6270905;22;20034;-90
2022/10/27 09:36:29;;;;;;;15.35;8.57;;;;;;;;;;6276771;22;20472;-91
2022/10/27 09:42:05;;;;;;;17.52;8.50;;;;;;;;;;6278680;22;20019;-92
2022/10/27 09:44:50;;;;;;;11.68;7.47;;;;;;;;;;6251010;22;20408;-92
2022/10/27 09:47:48;;;;;;;12.30;7.80;;;;;;;;;;6247148;22;20020;-90
2022/10/27 10:00:29;;;;;;;13.60;8.88;;;;;;;;;;6318074;22;20018;-90
2022/10/27 10:16:58;;;;;;;14.48;7.35;;;17.00;99.90;;;;;;6306111;22;20108;-90
2022/10/27 10:22:49;;;;;;;14.90;7.45;;;;;;;;;;6279330;22;20062;31
2022/10/27 10:30:50;;;;;;;9.85;6.78;;;;;;;;;;6316774;22;20053;-87
2022/10/27 10:39:36;;;;;;;12.90;6.72;;;;;;;;;;6284163;22;20027;-93
2022/10/27 10:42:30;;;;;;;10.73;6.45;;;;;;;;;;6258782;22;20036;-90
2022/10/27 10:45:20;;;;;;;8.02;6.07;;;;;;;;;;6232834;22;20062;-89
2022/10/27 10:48:26;;;;;;;8.65;5.50;;;;;;;;;;6174866;22;20020;-90
2022/10/27 10:55:01;;;;;;;10.43;4.85;;;;;;;;;;6258753;23;20099;-92
2022/10/27 11:10:14;;;;;;;12.88;5.07;;;;;;;;;;6224710;23;20094;-92
2022/10/27 11:12:58;;;;;;;8.85;5.18;;;;;;;;;;6169645;23;20024;-92
2022/10/27 11:27:15;;;;;;;7.28;2.95;;;;;;;;;;6223841;23;19915;-91
2022/10/27 11:29:44;;;;;;;5.85;2.80;;;;;;;;;;6224929;23;20020;-88
2022/10/27 11:35:47;;;;;;;5.75;2.17;;;;;;;;;;6227244;23;20102;-89
2022/10/27 11:38:35;;;;;;;7.65;2.15;;;;;;;;;;6138818;23;20085;-90
2022/10/27 11:41:32;;;;;;;5.47;2.40;;;;;;;;;;6178495;23;20046;-90
2022/10/27 11:44:35;;;;;;;6.93;2.10;;;;;;;;;;6259270;22;20024;-91
2022/10/27 11:47:20;;;;;;;5.78;2.13;;;;;;;;;;6289922;22;20076;-90
2022/10/27 11:49:47;;;;;;;7.05;2.47;;;;;;;;;;6288269;22;20015;-91
2022/10/27 11:52:19;;;;;;;7.13;2.20;;;;;;;;;;6288285;22;20015;-88
2022/10/27 11:54:48;;;;;;;6.50;2.20;;;;;;;;;;6288981;22;20068;-90
2022/10/27 11:57:30;;;;;;;6.25;2.28;;;;;;;;;;6292550;22;20019;-90
2022/10/27 12:00:02;;;;;;;7.47;2.13;;;;;;;;;;6292828;22;20023;-87
2022/10/27 12:02:48;;;;;;;7.05;2.33;;;;;;;;;;6292296;22;20415;-89
2022/10/27 12:05:40;;;;;;;8.80;2.00;;;;;;;;;;6289135;22;20019;-91
2022/10/27 12:08:09;;;;;;;5.00;2.05;;;;;;;;;;6289852;22;20015;-89
2022/10/27 12:10:59;;;;;;;6.45;2.38;;;;;;;;;;6288953;22;20046;-89
2022/10/27 12:20:04;;;;;;;5.93;2.08;;;;;;;;;;6292289;22;20027;-92
2022/10/27 12:25:56;;;;;;;5.53;1.90;;;;;;;;;;6317210;22;20546;-90
2022/10/27 12:28:54;;;;;;;3.95;1.70;;;;;;;;;;6260385;22;20030;-91
2022/10/27 12:31:25;;;;;;;4.85;1.95;;;;;;;;;;6278102;22;20086;-93
2022/10/27 12:34:08;;;;;;;8.32;1.98;;;;;;;;;;6276204;22;20467;-91
2022/10/27 12:39:54;;;;;;;6.20;1.55;;;;;;;;;;6188756;23;20029;-91
2022/10/27 12:46:05;;;;;;;3.60;1.98;;;;;;;;;;6170869;22;20073;-90
2022/10/27 13:11:51;;;;;;;5.35;1.85;;;;;;;;;;6320184;22;20047;-92
2022/10/27 13:14:20;;;;;;;4.78;2.08;;;;;;;;;;6259639;22;20045;-93
2022/10/27 13:22:53;;;;;;;6.47;1.70;;;;;;;;;;6308578;22;20053;-91
2022/10/27 13:43:22;;;;;;;6.72;1.80;;;;;;;;;;6322206;22;20475;-88
2022/10/27 13:49:52;;;;;;;7.82;2.03;;;;;;;;;;6282714;22;20018;-91
2022/10/27 13:52:22;;;;;;;4.00;2.42;;;;;;;;;;6188182;23;20067;-87
2022/10/27 13:54:55;;;;;;;2.95;2.15;;;;;;;;;;6157647;23;20027;-88
2022/10/27 13:57:40;;;;;;;8.40;2.30;;;19.30;99.90;;;;;;6157397;23;20021;-87
2022/10/27 14:00:27;;;;;;;5.05;2.83;;;;;;;;;;6138024;23;20017;-89
2022/10/27 14:06:39;;;;;;;6.93;2.83;;;;;;;;;;6294535;22;20031;-92
2022/10/27 14:09:34;;;;;;;7.88;2.33;;;;;;;;;;6282462;22;20019;-90
2022/10/27 14:12:20;;;;;;;5.38;1.55;;;;;;;;;;6280249;22;20022;-88
2022/10/27 14:15:20;;;;;;;3.83;1.40;;;;;;;;;;6280715;22;20023;-89
2022/10/27 14:17:52;;;;;;;7.20;1.55;;;;;;;;;;6279534;22;20031;-87
2022/10/27 14:20:50;;;;;;;7.67;2.40;;;;;;;;;;6253246;22;20067;-90
2022/10/27 14:23:19;;;;;;;5.20;1.63;;;;;;;;;;6282802;22;20063;-90
2022/10/27 14:25:45;;;;;;;4.78;1.60;;;;;;;;;;6278243;22;20019;-89
2022/10/27 14:38:19;;;;;;;3.20;1.50;;;;;;;;;;6273433;22;20101;-89
2022/10/27 14:43:20;;;;;;;4.53;1.95;;;;;;;;;;6307388;22;20026;-93
2022/10/27 14:45:48;;;;;;;10.35;2.00;;;;;;;;;;6280189;22;20085;-93
2022/10/27 14:48:33;;;;;;;6.65;2.40;;;;;;;;;;6268461;22;20014;-95
2022/10/27 14:51:01;;;;;;;7.97;2.20;;;;;;;;;;6291843;22;20068;-92
2022/10/27 14:53:35;;;;;;;9.15;2.22;;;;;;;;;;6287904;22;20023;-94
2022/10/27 14:58:31;;;;;;;2.92;2.08;;;;;;;;;;6308406;22;20478;-92
2022/10/27 15:01:16;;;;;;;4.05;2.58;;;;;;;;;;6258479;22;20457;-92
2022/10/27 15:03:42;;;;;;;7.60;2.83;;;;;;;;;;6284419;22;20048;-92
2022/10/27 15:06:13;;;;;;;4.43;2.40;;;;;;;;;;6226939;22;20065;-92
2022/10/27 15:09:01;;;;;;;4.60;2.63;;;;;;;;;;6281393;22;20019;-92
2022/10/27 15:11:30;;;;;;;4.45;2.10;;;;;;;;;;6278840;22;20492;-91
2022/10/27 15:13:56;;;;;;;6.40;1.90;;;;;;;;;;6282565;22;20110;-91
2022/10/27 15:16:24;;;;;;;12.23;2.38;;;;;;;;;;6281625;22;20019;-91
2022/10/27 15:19:05;;;;;;;6.82;2.22;;;;;;;;;;6280890;22;20325;-92
2022/10/27 15:21:48;;;;;;;6.25;1.67;;;;;;;;;;6281072;22;20148;-92
2022/10/27 15:24:25;;;;;;;8.48;1.70;;;;;;;;;;6279455;22;20060;-91
2022/10/27 15:29:51;;;;;;;5.28;2.13;;;;;;;;;;6279875;22;20024;-92
2022/10/27 15:32:19;;;;;;;5.40;1.63;;;;;;;;;;6282144;22;20023;-92
2022/10/27 15:34:56;;;;;;;4.75;1.80;;;;;;;;;;6287635;22;20019;-92
2022/10/27 15:41:12;;;;;;;6.22;1.77;;;;;;;;;;6310668;22;20034;-92
2022/10/27 15:43:38;;;;;;;5.93;1.60;;;;;;;;;;6286130;22;20077;-91
2022/10/27 15:46:34;;;;;;;4.07;1.90;;;;;;;;;;6293337;22;20015;-91
2022/10/27 15:49:29;;;;;;;6.57;2.22;;;;;;;;;;6267285;22;20027;-90
2022/10/27 15:52:06;;;;;;;6.65;2.50;;;;;;;;;;6285551;22;20022;-90
2022/10/27 15:54:34;;;;;;;8.80;2.63;;;;;;;;;;6288369;22;20030;-90
2022/10/27 15:57:01;;;;;;;6.45;2.15;;;;;;;;;;6282867;22;20085;-90
2022/10/27 15:59:28;;;;;;;4.40;1.98;;;;;;;;;;6286292;22;20081;-92
2022/10/27 16:05:49;;;;;;;4.32;2.10;;;;;;;;;;6311948;22;20038;-90
2022/10/27 16:08:16;;;;;;;9.40;2.90;;;;;;;;;;6228953;22;20023;-91
2022/10/27 16:10:42;;;;;;;5.65;2.42;;;;;;;;;;6310292;22;20019;-90
2022/10/27 16:13:12;;;;;;;10.93;2.85;;;;;;;;;;6257482;22;20026;-90
2022/10/27 16:15:52;;;;;;;4.45;2.55;;;;;;;;;;6282592;22;20016;-91
2022/10/27 16:18:37;;;;;;;6.03;2.47;;;;;;;;;;6257487;22;20019;-90
2022/10/27 16:21:03;;;;;;;5.57;2.20;;;;;;;;;;6229815;22;20355;-91
2022/10/27 16:23:29;;;;;;;3.70;2.00;;;;;;;;;;6282384;22;20021;-91
2022/10/27 16:25:55;;;;;;;6.55;2.78;;;;;;;;;;6230382;22;20022;-89
2022/10/27 16:28:40;;;;;;;5.28;1.90;;;;;;;;;;6309225;22;21020;-90
2022/10/27 16:31:06;;;;;;;2.60;2.00;;;;;;;;;;6280284;22;20019;-90
2022/10/27 16:33:37;;;;;;;4.50;2.05;;;;;;;;;;6309531;22;20324;-92
2022/10/27 16:36:14;;;;;;;4.93;2.10;;;;;;;;;;6281643;22;20122;-92
2022/10/27 16:38:44;;;;;;;8.48;2.13;;;;;;;;;;6282073;22;20344;-90
2022/10/27 16:41:11;;;;;;;6.22;1.92;;;;;;;;;;6256653;22;20404;-91
2022/10/27 16:43:38;;;;;;;6.38;2.22;;;;;;;;;;6280836;22;20019;-90
2022/10/27 16:46:04;;;;;;;7.03;2.38;;;;;;;;;;6231442;22;20162;-91
2022/10/27 16:51:22;;;;;;;8.80;2.15;;;;;;;;;;6218565;23;20024;-89
2022/10/27 16:53:48;;;;;;;7.45;2.33;;;;;;;;;;6218656;23;20040;-89
2022/10/27 16:56:18;;;;;;;3.35;2.00;;;;;;;;;;6209531;22;20027;-89
2022/10/27 16:58:44;;;;;;;5.30;2.33;;;;;;;;;;6303820;22;20079;-90
2022/10/27 17:01:18;;;;;;;7.30;2.00;;;;;;;;;;6253662;22;20019;-89
2022/10/27 17:04:00;;;;;;;12.05;2.55;;;;;;;;;;6252542;22;20048;-88
2022/10/27 17:09:26;;;;;;;7.10;2.25;;;;;;;;;;6276019;22;20098;-89
2022/10/27 17:12:26;;;;;;;9.95;2.40;;;16.60;99.90;;;;;;6305259;22;20472;-88
2022/10/27 17:18:15;;;;;;;8.18;2.30;;;;;;;;;;6309398;22;20045;-89
2022/10/27 17:20:41;;;;;;;5.13;2.17;;;;;;;;;;6256044;22;20503;-90
2022/10/27 17:23:08;;;;;;;7.95;2.58;;;;;;;;;;6303778;22;20011;-90
2022/10/27 17:35:49;;;;;;;7.85;2.67;;;;;;;;;;6307484;22;20106;-88
2022/10/27 17:38:15;;;;;;;6.55;2.90;;;;;;;;;;6281753;22;20019;-89
2022/10/27 17:40:53;;;;;;;10.15;2.60;;;;;;;;;;6281650;22;20023;-89
2022/10/27 17:43:21;;;;;;;7.72;3.00;;;;;;;;;;6279694;22;20019;-87
2022/10/27 17:46:07;;;;;;;10.23;2.70;;;;;;;;;;6306504;22;20026;-87
2022/10/27 17:48:34;;;;;;;8.68;2.70;;;;;;;;;;6278724;22;20324;-88
2022/10/27 17:51:14;;;;;;;11.38;3.45;;;;;;;;;;6306067;22;20019;-88
2022/10/27 17:53:52;;;;;;;9.18;3.50;;;;;;;;;;6309580;22;20019;-89
2022/10/27 17:56:35;;;;;;;4.72;2.67;;;;;;;;;;6252353;22;20398;-88
2022/10/27 17:59:03;;;;;;;6.72;3.60;;;;;;;;;;6279842;22;20054;-87
2022/10/27 18:01:38;;;;;;;8.52;3.65;;;;;;;;;;6305218;22;20022;-87
2022/10/27 18:04:08;;;;;;;6.45;3.45;;;;;;;;;;6281955;22;20027;-88
2022/10/27 18:06:46;;;;;;;4.13;2.97;;;;;;;;;;6308828;22;20026;-87
2022/10/27 18:09:17;;;;;;;9.00;3.80;;;;;;;;;;6309607;22;20075;-88
2022/10/27 18:11:43;;;;;;;7.65;3.65;;;;;;;;;;6313680;22;20035;-85
2022/10/27 18:14:17;;;;;;;8.55;3.78;;;;;;;;;;6321105;22;20019;-87
2022/10/27 18:16:44;;;;;;;9.10;4.05;;;;;;;;;;6313713;22;20026;-84
2022/10/27 18:19:11;;;;;;;10.43;3.45;;;;;;;;;;6317640;22;20022;-84
2022/10/27 18:21:38;;;;;;;13.38;4.10;;;;;;;;;;6325968;22;19999;-85
2022/10/27 18:24:05;;;;;;;10.05;4.15;;;;;;;;;;6296966;22;20035;-91
2022/10/27 18:26:32;;;;;;;8.02;3.92;;;;;;;;;;6312700;22;20444;-84
2022/10/27 18:28:59;;;;;;;7.80;4.70;;;;;;;;;;6307431;22;20015;-87
2022/10/27 18:31:27;;;;;;;10.25;4.03;;;;;;;;;;6309101;22;20027;-90